createdAt,value
2019-04-05T00:00:48.289Z,44.57
2019-04-05T00:03:21.055Z,44.91
2019-04-05T00:05:53.889Z,45.09
2019-04-05T00:08:26.715Z,45.56
2019-04-05T00:10:59.559Z,45.48
2019-04-05T00:13:32.359Z,45.55
2019-04-05T00:16:05.344Z,45.84
2019-04-05T00:18:38.631Z,46.12
2019-04-05T00:21:11.401Z,46.28
2019-04-05T00:23:44.285Z,46.40
2019-04-05T00:26:17.138Z,46.89
2019-04-05T00:28:51.733Z,46.79
2019-04-05T00:31:26.625Z,46.37
2019-04-05T00:34:00.497Z,46.18
2019-04-05T00:36:33.444Z,45.90
2019-04-05T00:39:09.604Z,45.88
2019-04-05T00:41:42.441Z,45.75
2019-04-05T00:44:15.382Z,45.66
2019-04-05T00:46:48.183Z,45.33
2019-04-05T00:49:20.943Z,45.41
2019-04-05T00:51:53.754Z,45.40
2019-04-05T00:54:26.529Z,45.17
2019-04-05T00:56:59.887Z,45.11
2019-04-05T00:59:32.948Z,44.89
2019-04-05T01:02:06.365Z,45.04
2019-04-05T01:04:40.284Z,44.90
2019-04-05T01:07:13.095Z,44.51
2019-04-05T01:09:47.352Z,44.58
2019-04-05T01:12:21.843Z,44.44
2019-04-05T01:14:56.270Z,44.42
2019-04-05T01:17:29.086Z,44.49
2019-04-05T01:20:04.643Z,44.87
2019-04-05T01:22:37.610Z,44.92
2019-04-05T01:25:10.837Z,45.06
2019-04-05T01:27:44.435Z,44.91
2019-04-05T01:30:18.590Z,44.94
2019-04-05T01:32:51.454Z,45.19
2019-04-05T01:35:24.443Z,45.44
2019-04-05T01:37:57.985Z,45.72
2019-04-05T01:40:32.963Z,45.82
2019-04-05T01:43:06.033Z,45.89
2019-04-05T01:45:38.999Z,45.64
2019-04-05T01:48:12.103Z,45.97
2019-04-05T01:50:44.896Z,46.45
2019-04-05T01:53:17.872Z,46.77
2019-04-05T01:55:50.634Z,46.88
2019-04-05T01:58:23.418Z,46.85
2019-04-05T02:00:56.225Z,46.78
2019-04-05T02:03:30.062Z,46.80
2019-04-05T02:06:02.956Z,46.71
2019-04-05T02:08:35.766Z,46.40
2019-04-05T02:11:08.972Z,46.61
2019-04-05T02:13:42.042Z,46.87
2019-04-05T02:16:14.829Z,47.05
2019-04-05T02:18:47.826Z,47.23
2019-04-05T02:21:20.594Z,47.26
2019-04-05T02:23:53.479Z,46.90
2019-04-05T02:26:31.450Z,46.96
2019-04-05T02:29:04.248Z,47.07
2019-04-05T02:31:38.138Z,47.71
2019-04-05T02:34:10.930Z,48.51
2019-04-05T02:36:43.737Z,48.99
2019-04-05T02:39:16.604Z,49.36
2019-04-05T02:41:50.056Z,49.44
2019-04-05T02:44:24.525Z,49.33
2019-04-05T02:46:58.202Z,49.46
2019-04-05T02:49:33.044Z,49.40
2019-04-05T02:52:07.333Z,49.66
2019-04-05T02:54:40.804Z,49.73
2019-04-05T02:57:14.912Z,49.65
2019-04-05T02:59:48.793Z,49.87
2019-04-05T03:02:22.589Z,49.99
2019-04-05T03:04:55.693Z,50.43
2019-04-05T03:07:29.631Z,50.49
2019-04-05T03:10:02.835Z,50.83
2019-04-05T03:12:37.049Z,50.96
2019-04-05T03:15:10.495Z,51.24
2019-04-05T03:17:43.743Z,51.57
2019-04-05T03:20:16.525Z,51.98
2019-04-05T03:22:49.466Z,52.26
2019-04-05T03:25:22.255Z,52.58
2019-04-05T03:27:55.230Z,52.65
2019-04-05T03:30:28.497Z,52.85
2019-04-05T03:33:01.719Z,52.72
2019-04-05T03:35:34.784Z,52.82
2019-04-05T03:38:08.919Z,53.01
2019-04-05T03:40:42.324Z,53.50
2019-04-05T03:43:15.208Z,53.77
2019-04-05T03:45:48.287Z,54.14
2019-04-05T03:48:23.771Z,54.44
2019-04-05T03:50:56.968Z,54.56
2019-04-05T03:53:29.876Z,54.85
2019-04-05T03:56:03.276Z,54.82
2019-04-05T03:58:36.161Z,54.87
2019-04-05T04:01:09.450Z,55.14
2019-04-05T04:03:42.665Z,55.23
2019-04-05T04:06:17.256Z,55.73
2019-04-05T04:08:50.106Z,55.74
2019-04-05T04:11:23.384Z,55.72
2019-04-05T04:13:56.390Z,55.94
2019-04-05T04:16:30.209Z,56.14
2019-04-05T04:19:03.392Z,56.48
2019-04-05T04:22:18.652Z,56.66
2019-04-05T04:24:51.799Z,57.23
2019-04-05T04:27:25.240Z,56.91
2019-04-05T04:30:00.491Z,56.58
2019-04-05T04:32:33.671Z,56.61
2019-04-05T04:35:07.411Z,56.41
2019-04-05T04:37:40.200Z,56.11
2019-04-05T04:40:15.224Z,55.88
2019-04-05T04:42:48.484Z,55.72
2019-04-05T04:45:21.862Z,55.39
2019-04-05T04:47:55.550Z,55.27
2019-04-05T04:50:29.380Z,54.94
2019-04-05T04:53:02.704Z,54.70
2019-04-05T04:55:36.334Z,54.66
2019-04-05T04:58:09.296Z,54.59
2019-04-05T05:00:42.177Z,54.43
2019-04-05T05:03:15.453Z,54.40
2019-04-05T05:05:48.445Z,54.32
2019-04-05T05:08:21.267Z,54.11
2019-04-05T05:10:54.419Z,53.83
2019-04-05T05:13:28.959Z,53.79
2019-04-05T05:16:04.491Z,53.45
2019-04-05T05:18:45.004Z,53.55
2019-04-05T05:21:18.114Z,53.43
2019-04-05T05:23:50.888Z,53.06
2019-04-05T05:26:24.197Z,53.01
2019-04-05T05:28:57.102Z,52.63
2019-04-05T05:31:29.989Z,52.46
2019-04-05T05:34:03.063Z,52.60
2019-04-05T05:36:36.469Z,52.39
2019-04-05T05:39:10.251Z,52.19
2019-04-05T05:41:43.068Z,51.90
2019-04-05T05:44:15.939Z,51.35
2019-04-05T05:46:48.735Z,51.22
2019-04-05T05:49:21.513Z,51.06
2019-04-05T05:51:54.952Z,50.83
2019-04-05T05:54:27.739Z,50.59
2019-04-05T05:57:00.657Z,50.24
2019-04-05T05:59:33.637Z,50.13
2019-04-05T06:02:07.399Z,50.08
2019-04-05T06:04:40.526Z,49.88
2019-04-05T06:07:13.393Z,49.66
2019-04-05T06:09:47.760Z,49.15
2019-04-05T06:12:20.658Z,48.79
2019-04-05T06:14:55.403Z,48.20
2019-04-05T06:17:28.160Z,48.23
2019-04-05T06:20:00.927Z,47.84
2019-04-05T06:22:33.924Z,48.02
2019-04-05T06:25:07.282Z,47.76
2019-04-05T06:27:40.060Z,47.70
2019-04-05T06:30:13.129Z,47.59
2019-04-05T06:32:46.056Z,47.46
2019-04-05T06:35:19.168Z,47.54
2019-04-05T06:37:52.010Z,47.58
2019-04-05T06:40:25.073Z,46.95
2019-04-05T06:42:57.828Z,46.92
2019-04-05T06:45:30.719Z,46.78
2019-04-05T06:48:03.573Z,46.54
2019-04-05T06:50:36.336Z,46.44
2019-04-05T06:53:09.144Z,46.39
2019-04-05T06:55:42.013Z,46.13
2019-04-05T06:58:19.882Z,45.90
2019-04-05T07:00:56.839Z,46.13
2019-04-05T07:03:23.882Z,45.89
2019-04-05T07:05:56.669Z,45.73
2019-04-05T07:08:29.512Z,45.40
2019-04-05T07:11:02.283Z,44.81
2019-04-05T07:13:35.204Z,44.64
2019-04-05T07:16:10.989Z,44.15
2019-04-05T07:18:43.091Z,43.90
2019-04-05T07:21:17.457Z,43.10
2019-04-05T07:23:50.402Z,42.64
2019-04-05T07:26:23.274Z,42.30
2019-04-05T07:28:56.395Z,41.24
2019-04-05T07:31:29.353Z,40.39
2019-04-05T07:34:02.266Z,39.90
2019-04-05T07:36:35.251Z,40.09
2019-04-05T07:39:09.455Z,39.60
2019-04-05T07:41:42.434Z,39.33
2019-04-05T07:44:15.203Z,38.98
2019-04-05T07:46:48.139Z,38.56
2019-04-05T07:49:21.094Z,38.35
2019-04-05T07:51:54.048Z,38.69
2019-04-05T07:54:26.849Z,38.20
2019-04-05T07:57:01.567Z,37.62
2019-04-05T07:59:38.012Z,37.65
2019-04-05T08:02:12.276Z,36.80
2019-04-05T08:04:45.171Z,37.61
2019-04-05T08:07:19.424Z,36.42
2019-04-05T08:09:54.542Z,37.10
2019-04-05T08:12:28.145Z,36.58
2019-04-05T08:15:01.182Z,35.81
2019-04-05T08:17:34.138Z,35.72
2019-04-05T08:20:07.601Z,36.00
2019-04-05T08:22:40.543Z,34.64
2019-04-05T08:25:13.951Z,33.64
2019-04-05T08:27:46.918Z,33.90
2019-04-05T08:30:19.871Z,32.86
2019-04-05T08:32:52.624Z,32.50
2019-04-05T08:35:25.421Z,32.20
2019-04-05T08:37:59.669Z,32.30
2019-04-05T08:40:32.757Z,31.43
2019-04-05T08:43:05.636Z,31.27
2019-04-05T08:45:38.431Z,31.17
2019-04-05T08:48:11.285Z,30.54
2019-04-05T08:50:44.293Z,30.33
2019-04-05T08:53:17.090Z,29.25
2019-04-05T08:55:49.886Z,29.76
2019-04-05T08:58:33.322Z,29.79
2019-04-05T09:00:58.420Z,29.75
2019-04-05T09:03:31.319Z,29.36
2019-04-05T09:06:04.113Z,28.53
2019-04-05T09:08:37.015Z,28.39
2019-04-05T09:11:09.776Z,28.26
2019-04-05T09:13:42.810Z,28.52
2019-04-05T09:16:16.773Z,29.94
2019-04-05T09:18:49.739Z,28.89
2019-04-05T09:21:22.637Z,28.47
2019-04-05T09:23:55.535Z,29.19
2019-04-05T09:26:28.328Z,30.11
2019-04-05T09:29:01.128Z,29.03
2019-04-05T09:31:34.028Z,28.56
2019-04-05T09:34:07.013Z,29.56
2019-04-05T09:36:40.014Z,29.06
2019-04-05T09:39:15.708Z,29.42
2019-04-05T09:41:47.472Z,29.35
2019-04-05T09:44:20.463Z,30.19
2019-04-05T09:46:53.274Z,30.10
2019-04-05T09:49:36.076Z,30.29
2019-04-05T09:52:00.895Z,31.42
2019-04-05T09:54:34.004Z,31.56
2019-04-05T09:57:06.887Z,31.12
2019-04-05T09:59:40.253Z,31.03
2019-04-05T10:02:13.150Z,31.01
2019-04-05T10:04:46.010Z,30.54
2019-04-05T10:07:18.986Z,30.38
2019-04-05T10:09:51.767Z,30.38
2019-04-05T10:12:24.846Z,30.44
2019-04-05T10:14:57.622Z,29.87
2019-04-05T10:17:30.521Z,28.98
2019-04-05T10:20:03.394Z,29.62
2019-04-05T10:22:36.356Z,29.73
2019-04-05T10:25:09.645Z,29.04
2019-04-05T10:27:42.449Z,28.67
2019-04-05T10:30:15.641Z,27.16
2019-04-05T10:32:48.460Z,25.97
2019-04-05T10:35:21.405Z,25.91
2019-04-05T10:37:54.250Z,25.68
2019-04-05T10:40:27.032Z,26.43
2019-04-05T10:42:59.871Z,25.51
2019-04-05T10:45:32.806Z,25.25
2019-04-05T10:48:05.690Z,25.19
2019-04-05T10:50:38.492Z,24.71
2019-04-05T10:53:11.397Z,24.83
2019-04-05T10:55:44.223Z,24.62
2019-04-05T10:58:17.373Z,24.03
2019-04-05T11:00:50.232Z,24.52
2019-04-05T11:03:24.226Z,24.11
2019-04-05T11:05:57.217Z,24.32
2019-04-05T11:08:30.055Z,24.24
2019-04-05T11:11:02.838Z,24.21
2019-04-05T11:13:35.944Z,24.43
2019-04-05T11:16:08.765Z,24.74
2019-04-05T11:18:44.925Z,24.08
2019-04-05T11:21:18.337Z,24.31
2019-04-05T11:23:53.608Z,24.54
2019-04-05T11:26:26.263Z,24.93
2019-04-05T11:28:59.125Z,26.35
2019-04-05T11:31:32.040Z,26.49
2019-04-05T11:34:07.295Z,25.63
2019-04-05T11:36:41.172Z,24.67
2019-04-05T11:39:15.865Z,24.26
2019-04-05T11:41:52.001Z,23.36
2019-04-05T11:44:26.390Z,22.87
2019-04-05T11:46:59.206Z,23.58
2019-04-05T11:49:34.836Z,24.65
2019-04-05T11:52:07.642Z,24.54
2019-04-05T11:54:40.695Z,24.86
2019-04-05T11:57:14.080Z,24.78
2019-04-05T11:59:48.589Z,25.04
2019-04-05T12:02:38.170Z,24.60
2019-04-05T12:05:12.995Z,24.83
2019-04-05T12:07:45.837Z,25.21
2019-04-05T12:10:19.554Z,25.28
2019-04-05T12:12:52.471Z,25.47
2019-04-05T12:15:25.387Z,25.79
2019-04-05T12:17:58.680Z,26.07
2019-04-05T12:20:33.246Z,25.46
2019-04-05T12:23:06.250Z,24.27
2019-04-05T12:25:39.028Z,23.96
2019-04-05T12:28:12.247Z,23.74
2019-04-05T12:30:46.662Z,23.86
2019-04-05T12:33:20.451Z,24.44
2019-04-05T12:35:56.465Z,24.45
2019-04-05T12:38:34.570Z,23.84
2019-04-05T12:41:10.672Z,24.12
2019-04-05T12:43:44.610Z,24.24
2019-04-05T12:46:16.789Z,24.24
2019-04-05T12:48:49.698Z,24.67
2019-04-05T12:51:22.571Z,25.04
2019-04-05T12:53:56.745Z,25.12
2019-04-05T12:56:29.862Z,25.35
2019-04-05T12:59:02.643Z,25.21
2019-04-05T13:01:35.460Z,25.15
2019-04-05T13:04:08.318Z,24.98
2019-04-05T13:06:42.396Z,24.94
2019-04-05T13:09:15.321Z,24.49
2019-04-05T13:11:48.417Z,25.02
2019-04-05T13:14:21.221Z,25.53
2019-04-05T13:16:55.422Z,25.11
2019-04-05T13:19:30.315Z,24.83
2019-04-05T13:22:04.980Z,24.95
2019-04-05T13:24:40.288Z,24.84
2019-04-05T13:27:12.513Z,25.04
2019-04-05T13:29:47.344Z,25.24
2019-04-05T13:32:22.357Z,25.59
2019-04-05T13:34:55.797Z,25.72
2019-04-05T13:37:30.880Z,25.59
2019-04-05T13:40:06.252Z,25.55
2019-04-05T13:42:39.439Z,25.33
2019-04-05T13:45:12.765Z,25.28
2019-04-05T13:47:45.658Z,25.43
2019-04-05T13:50:19.511Z,24.78
2019-04-05T13:52:52.486Z,25.05
2019-04-05T13:55:25.253Z,24.94
2019-04-05T13:58:01.762Z,24.91
2019-04-05T14:00:35.814Z,24.98
2019-04-05T14:03:08.657Z,25.07
2019-04-05T14:05:41.572Z,24.96
2019-04-05T14:08:15.839Z,25.29
2019-04-05T14:10:49.147Z,24.58
2019-04-05T14:13:22.030Z,25.00
2019-04-05T14:15:54.839Z,25.32
2019-04-05T14:18:29.071Z,25.56
2019-04-05T14:21:01.863Z,25.71
2019-04-05T14:23:36.459Z,26.11
2019-04-05T14:26:12.450Z,25.92
2019-04-05T14:28:45.320Z,26.17
2019-04-05T14:31:23.194Z,26.74
2019-04-05T14:33:59.605Z,26.89
2019-04-05T14:36:32.749Z,26.97
2019-04-05T14:39:09.252Z,26.89
2019-04-05T14:41:42.139Z,27.29
2019-04-05T14:44:16.079Z,27.70
2019-04-05T14:46:48.900Z,27.34
2019-04-05T14:49:21.755Z,27.82
2019-04-05T14:51:56.576Z,27.84
2019-04-05T14:54:30.178Z,27.81
2019-04-05T14:57:05.858Z,27.98
2019-04-05T14:59:39.018Z,27.99
2019-04-05T15:02:11.935Z,28.03
2019-04-05T15:04:44.910Z,27.51
2019-04-05T15:07:20.956Z,27.60
2019-04-05T15:09:55.634Z,27.81
2019-04-05T15:12:29.159Z,27.81
2019-04-05T15:15:02.370Z,28.37
2019-04-05T15:17:47.371Z,28.03
2019-04-05T15:20:10.175Z,28.04
2019-04-05T15:22:43.111Z,28.13
2019-04-05T15:25:17.502Z,27.82
2019-04-05T15:27:53.832Z,27.81
2019-04-05T15:30:26.622Z,27.01
2019-04-05T15:33:03.572Z,27.33
2019-04-05T15:35:36.476Z,27.28
2019-04-05T15:38:09.285Z,27.28
2019-04-05T15:40:42.155Z,27.56
2019-04-05T15:43:15.037Z,27.66
2019-04-05T15:45:47.904Z,27.43
2019-04-05T15:48:22.811Z,27.62
2019-04-05T15:50:57.806Z,27.79
2019-04-05T15:53:32.107Z,28.71
2019-04-05T15:56:05.314Z,32.74
2019-04-05T15:58:38.169Z,41.94
2019-04-05T16:01:11.714Z,44.07
2019-04-05T16:03:44.758Z,46.74
2019-04-05T16:06:17.716Z,45.08
2019-04-05T16:08:52.118Z,43.23
2019-04-05T16:11:25.048Z,50.79
2019-04-05T16:13:57.923Z,45.88
2019-04-05T16:16:32.190Z,45.71
2019-04-05T16:19:05.139Z,46.21
2019-04-05T16:21:38.065Z,46.46
2019-04-05T16:24:10.904Z,47.21
2019-04-05T16:26:43.812Z,46.27
2019-04-05T16:29:16.718Z,46.57
2019-04-05T16:31:49.747Z,45.78
2019-04-05T16:34:22.740Z,44.92
2019-04-05T16:36:55.644Z,46.23
2019-04-05T16:39:28.544Z,46.68
2019-04-05T16:42:01.502Z,45.67
2019-04-05T16:44:34.722Z,46.07
2019-04-05T16:47:07.658Z,46.64
2019-04-05T16:49:40.904Z,45.29
2019-04-05T16:52:13.955Z,45.43
2019-04-05T16:54:46.847Z,44.86
2019-04-05T16:57:20.046Z,44.63
2019-04-05T16:59:52.994Z,46.10
2019-04-05T17:02:25.929Z,44.50
2019-04-05T17:04:59.948Z,43.92
2019-04-05T17:07:33.076Z,43.79
2019-04-05T17:10:06.671Z,44.29
2019-04-05T17:12:39.807Z,44.53
2019-04-05T17:15:12.966Z,44.55
2019-04-05T17:17:45.948Z,44.40
2019-04-05T17:20:19.116Z,44.04
2019-04-05T17:22:58.012Z,43.43
2019-04-05T17:25:26.829Z,43.64
2019-04-05T17:28:00.432Z,43.24
2019-04-05T17:30:36.119Z,43.20
2019-04-05T17:33:08.375Z,43.14
2019-04-05T17:35:41.388Z,43.20
2019-04-05T17:38:14.514Z,43.69
2019-04-05T17:40:48.968Z,44.00
2019-04-05T17:43:21.913Z,44.49
2019-04-05T17:45:55.556Z,43.24
2019-04-05T17:48:28.383Z,43.39
2019-04-05T17:51:01.307Z,43.66
2019-04-05T17:53:34.167Z,44.27
2019-04-05T17:56:07.315Z,43.88
2019-04-05T17:58:40.853Z,44.49
2019-04-05T18:01:13.875Z,44.97
2019-04-05T18:03:46.800Z,44.08
2019-04-05T18:06:19.717Z,44.45
2019-04-05T18:08:52.615Z,44.63
2019-04-05T18:11:25.578Z,45.15
2019-04-05T18:13:58.523Z,44.57
2019-04-05T18:16:31.575Z,44.28
2019-04-05T18:19:04.419Z,44.40
2019-04-05T18:21:37.509Z,44.62
2019-04-05T18:24:10.580Z,44.37
2019-04-05T18:26:43.540Z,43.58
2019-04-05T18:29:16.390Z,43.77
2019-04-05T18:31:49.348Z,43.83
2019-04-05T18:34:22.427Z,43.90
2019-04-05T18:36:55.521Z,44.54
2019-04-05T18:39:31.698Z,44.20
2019-04-05T18:42:04.544Z,44.54
2019-04-05T18:44:37.590Z,44.29
2019-04-05T18:47:10.749Z,44.12
2019-04-05T18:49:43.665Z,43.94
2019-04-05T18:52:16.582Z,44.18
2019-04-05T18:54:49.565Z,43.75
2019-04-05T18:57:22.620Z,43.53
2019-04-05T18:59:55.605Z,43.22
2019-04-05T19:02:28.565Z,43.63
2019-04-05T19:05:01.414Z,43.43
2019-04-05T19:07:34.923Z,43.91
2019-04-05T19:10:08.660Z,43.39
2019-04-05T19:12:41.698Z,43.51
2019-04-05T19:15:14.862Z,43.59
2019-04-05T19:17:48.948Z,43.85
2019-04-05T19:20:21.789Z,43.71
2019-04-05T19:22:54.658Z,43.55
2019-04-05T19:25:27.484Z,43.74
2019-04-05T19:28:00.524Z,43.03
2019-04-05T19:48:36.316Z,43.25
2019-04-05T19:51:09.393Z,43.53
2019-04-05T19:53:42.246Z,43.25
2019-04-05T19:56:15.292Z,42.77
2019-04-05T19:58:48.243Z,43.42
2019-04-05T20:01:21.160Z,44.02
2019-04-05T20:03:54.049Z,43.64
2019-04-05T20:06:26.930Z,43.13
2019-04-05T20:08:59.823Z,43.48
2019-04-05T20:11:34.291Z,43.60
2019-04-05T20:14:07.400Z,43.96
2019-04-05T20:16:41.456Z,43.87
2019-04-05T20:19:15.677Z,43.98
2019-04-05T20:21:48.590Z,43.57
2019-04-05T20:24:23.584Z,43.57
2019-04-05T20:26:56.648Z,43.44
2019-04-05T20:29:29.545Z,43.60
2019-04-05T20:32:02.458Z,43.50
2019-04-05T20:34:35.540Z,44.09
2019-04-05T20:37:08.433Z,44.07
2019-04-05T20:39:41.223Z,44.01
2019-04-05T20:42:14.310Z,44.05
2019-04-05T20:44:47.340Z,43.94
2019-04-05T20:47:20.508Z,43.71
2019-04-05T20:49:53.490Z,43.86
2019-04-05T20:52:26.398Z,44.11
2019-04-05T20:55:02.745Z,43.73
2019-04-05T20:57:35.713Z,44.37
2019-04-05T21:00:10.446Z,43.87
2019-04-05T21:02:44.179Z,43.86
2019-04-05T21:05:25.397Z,44.01
2019-04-05T21:07:51.754Z,44.16
2019-04-05T21:10:24.857Z,44.49
2019-04-05T21:12:57.921Z,44.13
2019-04-05T21:15:30.817Z,44.35
2019-04-05T21:18:03.961Z,44.46
2019-04-05T21:20:37.987Z,44.48
2019-04-05T21:23:10.915Z,44.33
2019-04-05T21:25:43.769Z,44.55
2019-04-05T21:28:16.555Z,44.49
2019-04-05T21:30:50.349Z,44.58
2019-04-05T21:33:25.097Z,44.90
2019-04-05T21:35:58.011Z,45.02
2019-04-05T21:38:30.951Z,44.81
2019-04-05T21:41:03.780Z,44.46
2019-04-05T21:43:36.603Z,44.84
2019-04-05T21:46:09.671Z,44.95
2019-04-05T21:48:42.530Z,45.24
2019-04-05T21:51:16.346Z,45.63
2019-04-05T21:53:49.481Z,45.55
2019-04-05T21:56:22.272Z,45.48
2019-04-05T21:58:55.082Z,45.79
2019-04-05T22:01:28.182Z,46.43
2019-04-05T22:04:02.710Z,46.37
2019-04-05T22:06:35.577Z,46.55
2019-04-05T22:09:10.313Z,46.80
2019-04-05T22:11:43.282Z,46.63
2019-04-05T22:14:16.126Z,47.16
2019-04-05T22:16:48.920Z,47.41
2019-04-05T22:19:21.737Z,47.55
2019-04-05T22:21:54.548Z,47.78
2019-04-05T22:24:27.507Z,47.98
2019-04-05T22:27:00.417Z,48.04
2019-04-05T22:29:33.405Z,47.85
2019-04-05T22:32:08.043Z,48.59
2019-04-05T22:34:40.819Z,48.42
2019-04-05T22:37:13.604Z,48.68
2019-04-05T22:39:46.417Z,48.85
2019-04-05T22:42:20.395Z,48.94
2019-04-05T22:44:55.687Z,49.12
2019-04-05T22:47:29.569Z,49.08
2019-04-05T22:50:02.681Z,49.38
2019-04-05T22:52:36.055Z,49.13
2019-04-05T22:55:11.397Z,49.29
2019-04-05T22:57:43.824Z,49.64
2019-04-05T23:00:18.365Z,49.85
2019-04-05T23:02:52.758Z,50.07
2019-04-05T23:05:25.760Z,49.86
2019-04-05T23:07:58.745Z,49.89
2019-04-05T23:10:31.669Z,50.05
2019-04-05T23:13:04.607Z,50.27
2019-04-05T23:15:37.582Z,50.33
2019-04-05T23:18:10.591Z,50.32
2019-04-05T23:20:43.735Z,50.42
2019-04-05T23:23:16.722Z,50.37
2019-04-05T23:25:49.905Z,50.57
2019-04-05T23:28:22.820Z,50.54
2019-04-05T23:30:55.779Z,50.48
2019-04-05T23:33:30.632Z,50.61
2019-04-05T23:36:03.476Z,50.76
2019-04-05T23:38:36.509Z,50.67
2019-04-05T23:41:10.880Z,50.65
2019-04-05T23:43:44.094Z,50.52
2019-04-05T23:46:19.245Z,50.75
2019-04-05T23:48:52.026Z,50.87
2019-04-05T23:51:24.858Z,51.12
2019-04-05T23:53:57.792Z,50.83
2019-04-05T23:56:30.580Z,51.07
2019-04-05T23:59:07.153Z,50.81
